Terminal Aerodrome Forecast
Issued by NWS Blacksburg, VA

Home | Current Version | Previous Version | Text Only | Print | Product List | Glossary On
Versions: 1 2 3 4 5 6 7 8 9 10 11 12 13 14 15 16 17 18 19 20 21 22 23 24 25 26 27 28 29 30 31 32 33 34 35 36 37 38 39 40 41 42
000
FTUS41 KRNK 041944 AAA
TAFROA
TAF AMD
KROA 041944Z 0420/0518 28009KT P6SM -RA SCT030 BKN050
      TEMPO 0420/0421 25012G25KT 3SM TSRA BR BKN025CB
     FM042100 28006KT P6SM VCSH BKN035 OVC100
     FM050200 VRB03KT P6SM BKN060 OVC100
     FM051300 14003KT P6SM OVC050
     FM051500 12007KT P6SM -RA OVC035=

USA.gov is the U.S. government's official web portal to all federal, state and local government web resources and services.